Time;durP1;ratioP1;P1;durP2;ratioP2;P2;SDS_P1;SDS_P2;PMS_P1;PMS_P2;Temp;Humidity;BMP_temperature;BMP_pressure;BME280_temperature;BME280_humidity;BME280_pressure;Samples;Min_cycle;Max_cycle;Signal;HPM_P1;HPM_P2
2023/08/21 18:57:47;;;;;;;7.03;3.45;;;23.00;99.90;;;;;;5113072;27;20605;-75
2023/08/21 19:00:14;;;;;;;8.35;3.22;;;23.00;99.90;;;;;;5111069;28;20204;-74
2023/08/21 19:02:40;;;;;;;7.82;3.67;;;22.90;99.90;;;;;;5110620;28;20184;-78
2023/08/21 19:05:08;;;;;;;9.32;3.40;;;22.80;99.90;;;;;;5111001;28;20203;-74
2023/08/21 19:07:37;;;;;;;9.98;3.90;;;22.70;99.90;;;;;;5112415;28;20251;-74
2023/08/21 19:10:04;;;;;;;6.05;3.38;;;22.60;99.90;;;;;;5112334;28;20170;-74
2023/08/21 19:12:30;;;;;;;5.13;2.78;;;22.50;99.90;;;;;;5110985;28;20265;-74
2023/08/21 19:14:57;;;;;;;11.70;3.22;;;22.50;99.90;;;;;;5111105;28;20665;-74
2023/08/21 19:17:23;;;;;;;9.77;3.03;;;22.50;99.90;;;;;;5112057;28;20192;-75
2023/08/21 19:19:49;;;;;;;7.97;3.17;;;22.40;99.90;;;;;;5110870;28;20212;-74
2023/08/21 19:22:15;;;;;;;6.72;3.47;;;22.40;99.90;;;;;;5111346;28;20659;-75
2023/08/21 19:24:41;;;;;;;7.63;3.50;;;22.40;99.90;;;;;;5112868;28;20167;-74
2023/08/21 19:27:06;;;;;;;9.15;3.85;;;22.30;99.90;;;;;;5114807;28;20177;-75
2023/08/21 19:29:32;;;;;;;7.43;3.40;;;22.20;99.90;;;;;;5116009;28;20203;-75
2023/08/21 19:31:58;;;;;;;9.77;2.97;;;22.10;99.90;;;;;;5114258;28;20207;-74
2023/08/21 19:34:23;;;;;;;7.32;3.03;;;22.10;99.90;;;;;;5113126;28;20227;-75
2023/08/21 19:36:49;;;;;;;6.82;3.58;;;22.00;99.90;;;;;;5114382;28;20192;-74
2023/08/21 19:39:15;;;;;;;8.82;3.40;;;22.00;99.90;;;;;;5114707;28;20164;-75
2023/08/21 19:41:41;;;;;;;9.73;3.95;;;22.00;99.90;;;;;;5113955;28;20200;-75
2023/08/21 19:44:07;;;;;;;6.32;3.67;;;22.00;99.90;;;;;;5111972;28;20621;-75
2023/08/21 19:46:33;;;;;;;9.00;3.50;;;22.00;99.90;;;;;;5113685;28;20173;-75
2023/08/21 19:48:59;;;;;;;8.43;3.45;;;22.00;99.90;;;;;;5114895;28;20305;-74
2023/08/21 19:51:25;;;;;;;6.90;2.97;;;21.90;99.90;;;;;;5118764;28;20271;-74
2023/08/21 19:53:52;;;;;;;7.53;3.88;;;21.80;99.90;;;;;;5125514;28;20176;-74
2023/08/21 19:56:18;;;;;;;6.40;3.40;;;21.70;99.90;;;;;;5112700;28;20210;-74
2023/08/21 19:58:44;;;;;;;7.40;3.47;;;21.70;99.90;;;;;;5111692;28;20531;-75
2023/08/21 20:01:10;;;;;;;8.57;4.05;;;21.70;99.90;;;;;;5110443;28;20193;-77
2023/08/21 20:03:36;;;;;;;8.10;3.30;;;21.60;99.90;;;;;;5110660;28;20207;-76
2023/08/21 20:06:07;;;;;;;6.13;3.40;;;21.60;99.90;;;;;;5112201;28;20161;-76
2023/08/21 20:08:33;;;;;;;8.98;3.50;;;21.50;99.90;;;;;;5100897;28;20176;-77
2023/08/21 20:11:01;;;;;;;11.73;3.92;;;21.40;99.90;;;;;;5098995;28;20189;-77
2023/08/21 20:13:28;;;;;;;8.30;3.63;;;21.30;99.90;;;;;;5099574;28;20664;-77
2023/08/21 20:15:54;;;;;;;6.85;3.17;;;21.30;99.90;;;;;;5096706;28;20193;-77
2023/08/21 20:18:20;;;;;;;8.48;3.35;;;21.30;99.90;;;;;;5098435;28;20180;-78
2023/08/21 20:20:47;;;;;;;9.40;3.60;;;21.30;99.90;;;;;;5103374;28;20669;-78
2023/08/21 20:23:16;;;;;;;9.50;4.28;;;21.20;99.90;;;;;;5100280;28;20161;-77
2023/08/21 20:25:43;;;;;;;8.32;3.60;;;21.10;99.90;;;;;;5096337;28;20172;-74
2023/08/21 20:28:09;;;;;;;9.50;3.80;;;21.10;99.90;;;;;;5096991;28;20158;-74
2023/08/21 20:30:36;;;;;;;7.80;3.47;;;21.10;99.90;;;;;;5105604;28;20243;-75
2023/08/21 20:33:02;;;;;;;11.10;3.25;;;21.00;99.90;;;;;;5097460;28;20185;-75
2023/08/21 20:35:28;;;;;;;11.30;3.97;;;21.00;99.90;;;;;;5098617;28;20589;-77
2023/08/21 20:37:54;;;;;;;7.35;3.50;;;21.00;99.90;;;;;;5097743;28;20173;-76
2023/08/21 20:40:20;;;;;;;7.32;3.72;;;20.90;99.90;;;;;;5097351;28;20233;-76
2023/08/21 20:42:46;;;;;;;5.57;3.30;;;20.90;99.90;;;;;;5097775;28;20173;-77
2023/08/21 20:45:12;;;;;;;5.07;3.30;;;20.90;99.90;;;;;;5097679;28;20177;-77
2023/08/21 20:47:38;;;;;;;8.35;3.40;;;20.90;99.90;;;;;;5096024;28;20187;-77
2023/08/21 20:50:05;;;;;;;9.70;3.50;;;20.80;99.90;;;;;;5096113;28;20245;-77
2023/08/21 20:52:31;;;;;;;6.22;3.40;;;20.80;99.90;;;;;;5097805;28;20248;-75
2023/08/21 20:54:58;;;;;;;9.18;2.97;;;20.70;99.90;;;;;;5096769;28;20196;-76
2023/08/21 20:57:24;;;;;;;7.43;3.47;;;20.70;99.90;;;;;;5096772;28;20307;-76
2023/08/21 20:59:50;;;;;;;13.93;3.65;;;20.60;99.90;;;;;;5096700;28;20177;-76
2023/08/21 21:02:16;;;;;;;7.03;3.42;;;20.60;99.90;;;;;;5086393;28;20174;-75
2023/08/21 21:04:42;;;;;;;12.57;3.85;;;20.60;99.90;;;;;;5076224;28;20170;-75
2023/08/21 21:07:08;;;;;;;6.95;3.50;;;20.60;99.90;;;;;;5076509;28;20166;-76
2023/08/21 21:09:33;;;;;;;5.40;3.25;;;20.50;99.90;;;;;;5074759;28;20201;-76
2023/08/21 21:12:00;;;;;;;7.88;3.40;;;20.30;99.90;;;;;;5074564;28;20220;-76
2023/08/21 21:14:26;;;;;;;10.45;4.10;;;20.20;99.90;;;;;;5074750;28;20174;-76
2023/08/21 21:16:52;;;;;;;5.22;3.13;;;20.20;99.90;;;;;;5074564;28;20563;-76
2023/08/21 21:19:17;;;;;;;7.38;3.33;;;20.20;99.90;;;;;;5074917;28;20174;-76
2023/08/21 21:21:43;;;;;;;9.98;3.45;;;20.00;99.90;;;;;;5076376;28;20568;-76
2023/08/21 21:24:09;;;;;;;6.40;3.30;;;19.90;99.90;;;;;;5074687;28;20268;-76
2023/08/21 21:26:35;;;;;;;6.88;3.38;;;19.90;99.90;;;;;;5075001;28;20223;-75
2023/08/21 21:29:04;;;;;;;7.20;3.53;;;19.80;99.90;;;;;;5074520;28;20189;-76
2023/08/21 21:31:31;;;;;;;8.35;4.07;;;19.70;99.90;;;;;;5073927;28;20205;-76
2023/08/21 21:33:57;;;;;;;9.20;4.43;;;19.80;99.90;;;;;;5076168;28;20668;-76
2023/08/21 21:36:24;;;;;;;19.98;9.45;;;19.70;99.90;;;;;;5075941;28;20205;-75
2023/08/21 21:38:49;;;;;;;14.70;6.38;;;19.60;99.90;;;;;;5074721;28;20178;-75
2023/08/21 21:41:15;;;;;;;15.25;7.00;;;19.70;99.90;;;;;;5079159;28;20189;-76
2023/08/21 21:43:41;;;;;;;12.18;6.57;;;19.60;99.90;;;;;;5077055;28;20178;-76
2023/08/21 21:46:10;;;;;;;9.85;5.10;;;19.70;99.90;;;;;;5075582;28;20193;-76
2023/08/21 21:48:35;;;;;;;11.75;3.75;;;19.60;99.90;;;;;;5075443;28;20252;-76
2023/08/21 21:51:01;;;;;;;5.93;3.80;;;19.50;99.90;;;;;;5076958;28;20228;-76
2023/08/21 21:53:28;;;;;;;6.55;3.65;;;19.40;99.90;;;;;;5075693;28;20177;-76
2023/08/21 21:55:54;;;;;;;8.77;3.70;;;19.30;99.90;;;;;;5075246;28;20550;-75
2023/08/21 21:58:21;;;;;;;9.18;4.55;;;19.30;99.90;;;;;;5076082;28;20199;-76
2023/08/21 22:00:47;;;;;;;10.07;4.03;;;19.20;99.90;;;;;;5084815;28;20193;-75
2023/08/21 22:03:14;;;;;;;7.57;3.60;;;19.20;99.90;;;;;;5091166;28;20201;-75
2023/08/21 22:05:40;;;;;;;12.38;4.15;;;19.20;99.90;;;;;;5091183;28;20189;-76
2023/08/21 22:08:06;;;;;;;7.18;4.18;;;19.30;99.90;;;;;;5089472;28;20174;-75
2023/08/21 22:10:34;;;;;;;8.45;4.55;;;19.20;99.90;;;;;;5089625;28;20277;-75
2023/08/21 22:13:01;;;;;;;6.45;3.72;;;19.30;99.90;;;;;;5088176;28;20202;-75
2023/08/21 22:15:27;;;;;;;10.48;4.32;;;19.30;99.90;;;;;;5076459;28;20579;-75
2023/08/21 22:17:52;;;;;;;7.70;3.63;;;19.20;99.90;;;;;;5073586;28;20169;-75
2023/08/21 22:20:18;;;;;;;8.23;3.88;;;19.20;99.90;;;;;;5074601;28;20219;-76
2023/08/21 22:22:44;;;;;;;11.52;4.20;;;19.10;99.90;;;;;;5073484;28;20256;-75
2023/08/21 22:25:10;;;;;;;6.82;3.60;;;19.10;99.90;;;;;;5075333;28;20538;-76
2023/08/21 22:27:36;;;;;;;8.25;3.67;;;19.00;99.90;;;;;;5074520;28;20268;-75
2023/08/21 22:30:02;;;;;;;9.43;3.85;;;18.90;99.90;;;;;;5074361;28;20178;-75
2023/08/21 22:32:29;;;;;;;7.57;3.63;;;18.80;99.90;;;;;;5079864;28;20512;-75
2023/08/21 22:34:54;;;;;;;6.57;3.83;;;18.70;99.90;;;;;;5077765;28;20177;-76
2023/08/21 22:37:22;;;;;;;6.07;3.20;;;18.60;99.90;;;;;;5074240;28;20247;-76
2023/08/21 22:39:47;;;;;;;6.85;3.80;;;18.60;99.90;;;;;;5072778;28;20184;-76
2023/08/21 22:42:13;;;;;;;6.72;3.63;;;18.70;99.90;;;;;;5072982;28;20284;-76
2023/08/21 22:44:39;;;;;;;6.07;3.80;;;18.70;99.90;;;;;;5072860;28;20197;-76
2023/08/21 22:47:05;;;;;;;8.43;4.20;;;18.70;99.90;;;;;;5073872;28;20664;-75
2023/08/21 22:49:30;;;;;;;7.47;3.97;;;18.60;99.90;;;;;;5074056;28;20185;-76
2023/08/21 22:51:56;;;;;;;4.95;3.40;;;18.60;99.90;;;;;;5073665;28;20197;-76
2023/08/21 22:54:22;;;;;;;6.00;3.72;;;18.60;99.90;;;;;;5073915;28;20543;-76
2023/08/21 22:56:47;;;;;;;7.90;3.60;;;18.60;99.90;;;;;;5072671;28;20254;-76
2023/08/21 22:59:14;;;;;;;10.25;3.70;;;18.60;99.90;;;;;;5074301;28;20591;-76
2023/08/21 23:01:39;;;;;;;6.65;3.90;;;18.50;99.90;;;;;;5072468;28;20202;-75
2023/08/21 23:04:05;;;;;;;5.22;3.45;;;18.40;99.90;;;;;;5074136;28;20261;-75
2023/08/21 23:06:31;;;;;;;11.95;3.88;;;18.30;99.90;;;;;;5074233;28;20177;-75
2023/08/21 23:08:56;;;;;;;7.82;3.55;;;18.20;99.90;;;;;;5072842;28;20177;-75
2023/08/21 23:11:23;;;;;;;9.35;4.10;;;18.20;99.90;;;;;;5074328;28;20201;-74
2023/08/21 23:13:48;;;;;;;6.95;4.00;;;18.10;99.90;;;;;;5073891;28;20236;-74
2023/08/21 23:16:14;;;;;;;5.07;3.42;;;18.00;99.90;;;;;;5073458;28;20582;-76
2023/08/21 23:18:40;;;;;;;6.22;3.42;;;18.00;99.90;;;;;;5073838;28;20166;-76
2023/08/21 23:21:06;;;;;;;5.82;3.40;;;18.00;99.90;;;;;;5073171;28;20201;-77
2023/08/21 23:23:33;;;;;;;4.40;3.35;;;18.00;99.90;;;;;;5072711;28;20536;-77
2023/08/21 23:25:59;;;;;;;6.80;4.15;;;18.10;99.90;;;;;;5073746;28;20178;-77
2023/08/21 23:28:25;;;;;;;5.28;3.67;;;18.00;99.90;;;;;;5073896;28;20166;-76
2023/08/21 23:30:53;;;;;;;7.78;3.90;;;18.10;99.90;;;;;;5073818;28;20259;-77
2023/08/21 23:33:19;;;;;;;10.75;4.32;;;18.20;99.90;;;;;;5073609;28;20174;-76
2023/08/21 23:35:45;;;;;;;6.18;3.70;;;18.20;99.90;;;;;;5072388;28;20202;-76
2023/08/21 23:38:11;;;;;;;7.65;4.05;;;18.20;99.90;;;;;;5073958;28;20209;-76
2023/08/21 23:40:37;;;;;;;6.13;3.97;;;18.20;99.90;;;;;;5073037;28;20225;-76
2023/08/21 23:43:06;;;;;;;7.85;4.68;;;18.20;99.90;;;;;;5090119;28;20641;-76
2023/08/21 23:45:33;;;;;;;9.88;4.57;;;18.20;99.90;;;;;;5081349;28;20196;-76
2023/08/21 23:47:59;;;;;;;10.05;4.38;;;18.20;99.90;;;;;;5076622;28;20228;-77
2023/08/21 23:50:31;;;;;;;7.55;4.38;;;18.10;99.90;;;;;;5077203;28;20190;-76
2023/08/21 23:52:59;;;;;;;7.63;4.20;;;18.10;99.90;;;;;;5077719;28;20694;-76
2023/08/21 23:55:24;;;;;;;7.88;4.35;;;18.00;99.90;;;;;;5075849;28;20196;-76
2023/08/21 23:57:50;;;;;;;7.55;4.25;;;17.90;99.90;;;;;;5075962;28;20205;-76
